VIR18 KSLC-KGPI
Flight info
| Callsign | VIR18 |
|---|---|
| Flight time | 1h 19m |
| Altitude | 40000 |
| Route | RUGGD3 HOLTR FCA |
| Aircraft | A343/H-SDE2E3FGHIJ4J5M1RWXY/LB1D1 |
Departure
| Time | 2026-04-24 04:12 |
|---|---|
| Airport | Salt Lake City International Airport (KSLC) |
Arrival
| Time | 2026-04-24 05:31 |
|---|---|
| Airport | Glacier Park International Airport (KGPI) |
| Time | Latitude | Longitude | Altitude | Speed | Heading |
|---|---|---|---|---|---|
| 2026-04-24 03:38 | 40.78645 | -111.98273 | 4235 ft | 0 kts | 174° |
| 2026-04-24 03:52 | 40.78652 | -111.98273 | 4235 ft | 2 kts | 171° |
| 2026-04-24 03:53 | 40.78668 | -111.98276 | 4233 ft | 2 kts | 167° |
| 2026-04-24 03:53 | 40.78684 | -111.98279 | 4234 ft | 2 kts | 186° |
| 2026-04-24 03:53 | 40.78698 | -111.98285 | 4233 ft | 2 kts | 146° |
| 2026-04-24 03:53 | 40.78708 | -111.98296 | 4235 ft | 2 kts | 121° |
| 2026-04-24 03:54 | 40.78715 | -111.98315 | 4235 ft | 2 kts | 90° |
| 2026-04-24 03:54 | 40.78716 | -111.98319 | 4235 ft | 0 kts | 84° |
| 2026-04-24 03:59 | 40.78718 | -111.98293 | 4235 ft | 6 kts | 84° |
| 2026-04-24 03:59 | 40.78722 | -111.98228 | 4235 ft | 8 kts | 85° |
| 2026-04-24 03:59 | 40.78727 | -111.98155 | 4235 ft | 8 kts | 85° |
| 2026-04-24 04:00 | 40.78732 | -111.98080 | 4235 ft | 3 kts | 85° |
| 2026-04-24 04:00 | 40.78732 | -111.98079 | 4235 ft | 0 kts | 85° |
| 2026-04-24 04:02 | 40.78732 | -111.98078 | 4235 ft | 1 kts | 85° |
| 2026-04-24 04:02 | 40.78734 | -111.98054 | 4230 ft | 4 kts | 85° |
| 2026-04-24 04:02 | 40.78736 | -111.98022 | 4235 ft | 1 kts | 85° |
| 2026-04-24 04:03 | 40.78736 | -111.98021 | 4235 ft | 0 kts | 85° |
| 2026-04-24 04:03 | 40.78736 | -111.98017 | 4235 ft | 1 kts | 85° |
| 2026-04-24 04:03 | 40.78737 | -111.97996 | 4235 ft | 3 kts | 85° |
| 2026-04-24 04:03 | 40.78739 | -111.97965 | 4235 ft | 4 kts | 85° |
| 2026-04-24 04:04 | 40.78742 | -111.97923 | 4235 ft | 5 kts | 85° |
| 2026-04-24 04:04 | 40.78746 | -111.97850 | 4235 ft | 13 kts | 86° |
| 2026-04-24 04:04 | 40.78775 | -111.97704 | 4235 ft | 19 kts | 44° |
| 2026-04-24 04:04 | 40.78919 | -111.97703 | 4236 ft | 25 kts | 354° |
| 2026-04-24 04:05 | 40.79125 | -111.97726 | 4235 ft | 34 kts | 355° |
| 2026-04-24 04:05 | 40.79374 | -111.97754 | 4235 ft | 33 kts | 355° |
| 2026-04-24 04:05 | 40.79575 | -111.97777 | 4234 ft | 28 kts | 355° |
| 2026-04-24 04:05 | 40.79772 | -111.97797 | 4235 ft | 28 kts | 354° |
| 2026-04-24 04:06 | 40.79966 | -111.97821 | 4235 ft | 28 kts | 355° |
| 2026-04-24 04:06 | 40.80159 | -111.97844 | 4235 ft | 28 kts | 355° |
| 2026-04-24 04:06 | 40.80315 | -111.97831 | 4236 ft | 18 kts | 12° |
| 2026-04-24 04:06 | 40.80438 | -111.97827 | 4236 ft | 16 kts | 355° |
| 2026-04-24 04:07 | 40.80540 | -111.97838 | 4235 ft | 14 kts | 355° |
| 2026-04-24 04:07 | 40.80594 | -111.97844 | 4235 ft | 0 kts | 355° |
| 2026-04-24 04:08 | 40.80595 | -111.97845 | 4234 ft | 1 kts | 355° |
| 2026-04-24 04:08 | 40.80619 | -111.97847 | 4235 ft | 5 kts | 355° |
| 2026-04-24 04:08 | 40.80635 | -111.97849 | 4235 ft | 0 kts | 355° |
| 2026-04-24 04:09 | 40.80641 | -111.97850 | 4235 ft | 2 kts | 355° |
| 2026-04-24 04:09 | 40.80657 | -111.97851 | 4235 ft | 3 kts | 355° |
| 2026-04-24 04:09 | 40.80702 | -111.97854 | 4235 ft | 11 kts | 5° |
| 2026-04-24 04:10 | 40.80742 | -111.97781 | 4234 ft | 11 kts | 96° |
| 2026-04-24 04:10 | 40.80696 | -111.97704 | 4233 ft | 11 kts | 146° |
| 2026-04-24 04:10 | 40.80653 | -111.97689 | 4233 ft | 0 kts | 173° |
| 2026-04-24 04:11 | 40.80603 | -111.97681 | 4235 ft | 22 kts | 173° |
| 2026-04-24 04:11 | 40.80237 | -111.97637 | 4237 ft | 83 kts | 176° |
| 2026-04-24 04:11 | 40.79474 | -111.97548 | 4234 ft | 135 kts | 175° |
| 2026-04-24 04:12 | 40.78412 | -111.97424 | 4400 ft | 163 kts | 175° |
| 2026-04-24 04:12 | 40.77278 | -111.97293 | 5045 ft | 164 kts | 175° |
| 2026-04-24 04:12 | 40.76099 | -111.97360 | 5527 ft | 183 kts | 197° |
| 2026-04-24 04:12 | 40.75006 | -111.98432 | 5803 ft | 214 kts | 234° |
| 2026-04-24 04:13 | 40.74498 | -112.00397 | 6140 ft | 247 kts | 266° |
| 2026-04-24 04:13 | 40.74862 | -112.02723 | 6699 ft | 274 kts | 294° |
| 2026-04-24 04:13 | 40.75897 | -112.04857 | 7763 ft | 273 kts | 304° |
| 2026-04-24 04:13 | 40.77017 | -112.06806 | 9132 ft | 263 kts | 306° |
| 2026-04-24 04:14 | 40.78130 | -112.08719 | 10205 ft | 263 kts | 306° |
| 2026-04-24 04:14 | 40.79279 | -112.10687 | 10790 ft | 281 kts | 306° |
| 2026-04-24 04:14 | 40.80519 | -112.12813 | 11132 ft | 303 kts | 306° |
| 2026-04-24 04:14 | 40.82034 | -112.14857 | 11567 ft | 321 kts | 320° |
| 2026-04-24 04:15 | 40.84032 | -112.16280 | 12265 ft | 334 kts | 339° |
| 2026-04-24 04:15 | 40.86372 | -112.16587 | 13102 ft | 347 kts | 2° |
| 2026-04-24 04:15 | 40.88707 | -112.15575 | 13917 ft | 363 kts | 24° |
| 2026-04-24 04:15 | 40.90741 | -112.13509 | 14633 ft | 380 kts | 44° |
| 2026-04-24 04:16 | 40.92344 | -112.10733 | 15299 ft | 390 kts | 50° |
| 2026-04-24 04:16 | 40.93957 | -112.07825 | 15975 ft | 394 kts | 48° |
| 2026-04-24 04:16 | 40.95655 | -112.04948 | 16720 ft | 398 kts | 46° |
| 2026-04-24 04:16 | 40.97439 | -112.02132 | 17438 ft | 402 kts | 44° |
| 2026-04-24 04:17 | 40.99319 | -111.99374 | 18143 ft | 406 kts | 41° |
| 2026-04-24 04:17 | 41.01294 | -111.96690 | 18798 ft | 408 kts | 39° |
| 2026-04-24 04:17 | 41.03361 | -111.94095 | 19448 ft | 410 kts | 36° |
| 2026-04-24 04:17 | 41.05516 | -111.91606 | 20118 ft | 412 kts | 34° |
| 2026-04-24 04:18 | 41.07742 | -111.89203 | 20788 ft | 414 kts | 32° |
| 2026-04-24 04:18 | 41.10051 | -111.86914 | 21506 ft | 413 kts | 27° |
| 2026-04-24 04:18 | 41.12559 | -111.85094 | 22084 ft | 412 kts | 18° |
| 2026-04-24 04:18 | 41.15195 | -111.83563 | 22695 ft | 414 kts | 16° |
| 2026-04-24 04:19 | 41.17865 | -111.82095 | 23286 ft | 417 kts | 15° |
| 2026-04-24 04:19 | 41.20561 | -111.80638 | 23820 ft | 420 kts | 15° |
| 2026-04-24 04:19 | 41.23279 | -111.79178 | 24247 ft | 424 kts | 15° |
| 2026-04-24 04:19 | 41.26037 | -111.77699 | 24616 ft | 430 kts | 15° |
| 2026-04-24 04:20 | 41.28819 | -111.76207 | 25085 ft | 433 kts | 15° |
| 2026-04-24 04:20 | 41.31616 | -111.74704 | 25557 ft | 435 kts | 15° |
| 2026-04-24 04:20 | 41.34427 | -111.73195 | 26027 ft | 437 kts | 15° |
| 2026-04-24 04:20 | 41.37256 | -111.71677 | 26481 ft | 439 kts | 15° |
| 2026-04-24 04:21 | 41.40127 | -111.70321 | 26907 ft | 438 kts | 11° |
| 2026-04-24 04:21 | 41.43052 | -111.69145 | 27313 ft | 440 kts | 10° |
| 2026-04-24 04:21 | 41.45996 | -111.67994 | 27729 ft | 442 kts | 10° |
| 2026-04-24 04:21 | 41.48956 | -111.66838 | 28152 ft | 445 kts | 10° |
| 2026-04-24 04:22 | 41.51938 | -111.65670 | 28552 ft | 448 kts | 10° |
| 2026-04-24 04:22 | 41.54937 | -111.64494 | 28963 ft | 451 kts | 10° |
| 2026-04-24 04:22 | 41.57944 | -111.63313 | 29486 ft | 450 kts | 10° |
| 2026-04-24 04:22 | 41.60957 | -111.62128 | 29893 ft | 453 kts | 10° |
| 2026-04-24 04:23 | 41.63992 | -111.60935 | 30195 ft | 456 kts | 10° |
| 2026-04-24 04:23 | 41.67051 | -111.59730 | 30450 ft | 460 kts | 11° |
| 2026-04-24 04:23 | 41.70131 | -111.58516 | 30712 ft | 464 kts | 11° |
| 2026-04-24 04:23 | 41.73194 | -111.57307 | 30959 ft | 467 kts | 11° |
| 2026-04-24 04:24 | 41.76362 | -111.56056 | 31212 ft | 470 kts | 11° |
| 2026-04-24 04:24 | 41.79459 | -111.54910 | 31676 ft | 464 kts | 7° |
| 2026-04-24 04:24 | 41.82612 | -111.54088 | 32096 ft | 461 kts | 4° |
| 2026-04-24 04:24 | 41.85778 | -111.53365 | 32419 ft | 462 kts | 4° |
| 2026-04-24 04:25 | 41.88952 | -111.52653 | 32752 ft | 463 kts | 4° |
| 2026-04-24 04:25 | 41.92131 | -111.51939 | 33084 ft | 464 kts | 4° |
| 2026-04-24 04:25 | 41.95314 | -111.51221 | 33410 ft | 464 kts | 4° |
| 2026-04-24 04:25 | 41.98497 | -111.50501 | 33904 ft | 461 kts | 3° |
| 2026-04-24 04:26 | 42.01628 | -111.49788 | 34538 ft | 453 kts | 3° |
| 2026-04-24 04:26 | 42.04732 | -111.49085 | 34772 ft | 454 kts | 3° |
| 2026-04-24 04:26 | 42.07861 | -111.48380 | 34917 ft | 457 kts | 4° |
| 2026-04-24 04:26 | 42.11003 | -111.47669 | 35125 ft | 459 kts | 4° |
| 2026-04-24 04:27 | 42.14159 | -111.46952 | 35346 ft | 460 kts | 4° |
| 2026-04-24 04:27 | 42.17322 | -111.46232 | 35627 ft | 461 kts | 4° |
| 2026-04-24 04:27 | 42.20484 | -111.45511 | 35945 ft | 460 kts | 4° |
| 2026-04-24 04:27 | 42.23643 | -111.44790 | 36173 ft | 461 kts | 4° |
| 2026-04-24 04:28 | 42.26816 | -111.44093 | 36341 ft | 462 kts | 2° |
| 2026-04-24 04:28 | 42.30000 | -111.43941 | 36512 ft | 455 kts | 350° |
| 2026-04-24 04:28 | 42.33083 | -111.44747 | 36727 ft | 449 kts | 339° |
| 2026-04-24 04:28 | 42.36056 | -111.46031 | 36920 ft | 449 kts | 337° |
| 2026-04-24 04:29 | 42.39016 | -111.47384 | 37282 ft | 447 kts | 337° |
| 2026-04-24 04:29 | 42.41954 | -111.48730 | 37610 ft | 446 kts | 337° |
| 2026-04-24 04:29 | 42.44903 | -111.50080 | 37741 ft | 448 kts | 337° |
| 2026-04-24 04:29 | 42.47865 | -111.51435 | 37902 ft | 450 kts | 337° |
| 2026-04-24 04:30 | 42.50839 | -111.52794 | 38071 ft | 452 kts | 337° |
| 2026-04-24 04:30 | 42.53830 | -111.54160 | 38267 ft | 454 kts | 337° |
| 2026-04-24 04:30 | 42.56817 | -111.55524 | 38670 ft | 451 kts | 338° |
| 2026-04-24 04:30 | 42.59735 | -111.56856 | 38975 ft | 448 kts | 337° |
| 2026-04-24 04:31 | 42.62690 | -111.58209 | 39126 ft | 449 kts | 337° |
| 2026-04-24 04:31 | 42.65654 | -111.59568 | 39240 ft | 451 kts | 337° |
| 2026-04-24 04:31 | 42.68625 | -111.60931 | 39389 ft | 451 kts | 337° |
| 2026-04-24 04:31 | 42.71599 | -111.62296 | 39543 ft | 452 kts | 337° |
| 2026-04-24 04:32 | 42.74583 | -111.63667 | 39686 ft | 452 kts | 337° |
| 2026-04-24 04:32 | 42.77564 | -111.65038 | 39842 ft | 453 kts | 337° |
| 2026-04-24 04:32 | 42.80554 | -111.66414 | 39947 ft | 455 kts | 337° |
| 2026-04-24 04:32 | 42.83565 | -111.67803 | 39965 ft | 459 kts | 337° |
| 2026-04-24 04:33 | 42.88627 | -111.70138 | 39968 ft | 458 kts | 337° |
| 2026-04-24 04:33 | 42.94655 | -111.72923 | 39971 ft | 455 kts | 337° |
| 2026-04-24 04:34 | 43.00601 | -111.75678 | 39977 ft | 454 kts | 337° |
| 2026-04-24 04:34 | 43.06590 | -111.78459 | 39985 ft | 455 kts | 337° |
| 2026-04-24 04:35 | 43.12579 | -111.81245 | 39994 ft | 454 kts | 337° |
| 2026-04-24 04:35 | 43.18559 | -111.84033 | 40005 ft | 454 kts | 337° |
| 2026-04-24 04:36 | 43.24529 | -111.86825 | 40006 ft | 454 kts | 337° |
| 2026-04-24 04:36 | 43.30503 | -111.89621 | 40012 ft | 452 kts | 337° |
| 2026-04-24 04:37 | 43.36453 | -111.92413 | 40013 ft | 452 kts | 337° |
| 2026-04-24 04:37 | 43.42399 | -111.95206 | 40018 ft | 452 kts | 337° |
| 2026-04-24 04:38 | 43.48335 | -111.98001 | 40008 ft | 450 kts | 336° |
| 2026-04-24 04:38 | 43.54249 | -112.00792 | 40008 ft | 449 kts | 336° |
| 2026-04-24 04:39 | 43.60157 | -112.03587 | 40024 ft | 449 kts | 336° |
| 2026-04-24 04:39 | 43.66059 | -112.06384 | 40011 ft | 448 kts | 337° |
| 2026-04-24 04:40 | 43.71950 | -112.09182 | 40005 ft | 447 kts | 336° |
| 2026-04-24 04:40 | 43.77842 | -112.11987 | 39997 ft | 447 kts | 336° |
| 2026-04-24 04:41 | 43.83713 | -112.14786 | 39989 ft | 445 kts | 336° |
| 2026-04-24 04:41 | 43.89555 | -112.17578 | 39991 ft | 443 kts | 336° |
| 2026-04-24 04:42 | 43.95382 | -112.20370 | 39976 ft | 443 kts | 336° |
| 2026-04-24 04:42 | 44.01215 | -112.23169 | 39970 ft | 443 kts | 336° |
| 2026-04-24 04:43 | 44.07000 | -112.25952 | 39976 ft | 443 kts | 336° |
| 2026-04-24 04:43 | 44.12821 | -112.28758 | 39985 ft | 443 kts | 336° |
| 2026-04-24 04:44 | 44.18696 | -112.31596 | 39990 ft | 446 kts | 336° |
| 2026-04-24 04:44 | 44.24545 | -112.34428 | 39993 ft | 449 kts | 336° |
| 2026-04-24 04:45 | 44.30449 | -112.37290 | 40002 ft | 449 kts | 336° |
| 2026-04-24 04:45 | 44.36357 | -112.40161 | 40010 ft | 451 kts | 336° |
| 2026-04-24 04:46 | 44.42307 | -112.43060 | 40023 ft | 454 kts | 336° |
| 2026-04-24 04:46 | 44.48275 | -112.45974 | 40033 ft | 454 kts | 336° |
| 2026-04-24 04:47 | 44.54240 | -112.48890 | 40034 ft | 454 kts | 336° |
| 2026-04-24 04:47 | 44.60198 | -112.51811 | 40039 ft | 454 kts | 336° |
| 2026-04-24 04:48 | 44.66160 | -112.54740 | 40036 ft | 454 kts | 336° |
| 2026-04-24 04:48 | 44.72117 | -112.57674 | 40043 ft | 454 kts | 336° |
| 2026-04-24 04:49 | 44.78087 | -112.60620 | 40043 ft | 455 kts | 336° |
| 2026-04-24 04:49 | 44.84062 | -112.63575 | 40043 ft | 455 kts | 336° |
| 2026-04-24 04:50 | 44.90040 | -112.66538 | 40049 ft | 455 kts | 337° |
| 2026-04-24 04:50 | 44.96028 | -112.69513 | 40037 ft | 457 kts | 336° |
| 2026-04-24 04:51 | 45.02032 | -112.72502 | 40024 ft | 458 kts | 336° |
| 2026-04-24 04:51 | 45.08036 | -112.75497 | 40033 ft | 458 kts | 337° |
| 2026-04-24 04:52 | 45.14028 | -112.78493 | 40019 ft | 456 kts | 336° |
| 2026-04-24 04:52 | 45.20000 | -112.81486 | 40018 ft | 455 kts | 336° |
| 2026-04-24 04:53 | 45.25931 | -112.84466 | 40041 ft | 455 kts | 336° |
| 2026-04-24 04:53 | 45.31904 | -112.87473 | 40031 ft | 455 kts | 336° |
| 2026-04-24 04:54 | 45.37878 | -112.90488 | 40029 ft | 455 kts | 336° |
| 2026-04-24 04:54 | 45.43852 | -112.93507 | 40031 ft | 455 kts | 336° |
| 2026-04-24 04:55 | 45.49829 | -112.96537 | 40040 ft | 457 kts | 337° |
| 2026-04-24 04:55 | 45.55834 | -112.99589 | 40047 ft | 459 kts | 337° |
| 2026-04-24 04:56 | 45.61848 | -113.02652 | 40056 ft | 459 kts | 337° |
| 2026-04-24 04:56 | 45.67861 | -113.05720 | 40068 ft | 459 kts | 337° |
| 2026-04-24 04:57 | 45.73879 | -113.08797 | 40064 ft | 459 kts | 337° |
| 2026-04-24 04:57 | 45.79896 | -113.11880 | 40071 ft | 459 kts | 337° |
| 2026-04-24 04:58 | 45.85911 | -113.14971 | 40072 ft | 459 kts | 337° |
| 2026-04-24 04:58 | 45.91934 | -113.18074 | 40073 ft | 459 kts | 337° |
| 2026-04-24 04:59 | 45.97944 | -113.21176 | 40072 ft | 459 kts | 337° |
| 2026-04-24 04:59 | 46.03955 | -113.24286 | 40085 ft | 459 kts | 337° |
| 2026-04-24 05:00 | 46.09947 | -113.27394 | 40085 ft | 457 kts | 337° |
| 2026-04-24 05:00 | 46.15924 | -113.30500 | 40096 ft | 457 kts | 337° |
| 2026-04-24 05:01 | 46.21914 | -113.33620 | 40096 ft | 458 kts | 337° |
| 2026-04-24 05:01 | 46.27905 | -113.36749 | 40085 ft | 458 kts | 337° |
| 2026-04-24 05:02 | 46.33895 | -113.39885 | 40090 ft | 457 kts | 337° |
| 2026-04-24 05:02 | 46.39877 | -113.43024 | 40090 ft | 457 kts | 337° |
| 2026-04-24 05:03 | 46.45866 | -113.46174 | 40095 ft | 458 kts | 337° |
| 2026-04-24 05:03 | 46.51809 | -113.49303 | 40092 ft | 458 kts | 337° |
| 2026-04-24 05:04 | 46.57793 | -113.52465 | 40094 ft | 457 kts | 337° |
| 2026-04-24 05:04 | 46.63775 | -113.55634 | 40100 ft | 458 kts | 337° |
| 2026-04-24 05:05 | 46.69761 | -113.58812 | 39806 ft | 456 kts | 337° |
| 2026-04-24 05:05 | 46.72740 | -113.60397 | 39303 ft | 456 kts | 337° |
| 2026-04-24 05:05 | 46.75725 | -113.61986 | 38753 ft | 457 kts | 337° |
| 2026-04-24 05:06 | 46.78714 | -113.63580 | 38100 ft | 458 kts | 337° |
| 2026-04-24 05:06 | 46.81701 | -113.65175 | 37520 ft | 456 kts | 337° |
| 2026-04-24 05:06 | 46.84671 | -113.66761 | 36974 ft | 454 kts | 337° |
| 2026-04-24 05:06 | 46.87631 | -113.68344 | 36420 ft | 452 kts | 337° |
| 2026-04-24 05:07 | 46.90585 | -113.69925 | 35825 ft | 451 kts | 337° |
| 2026-04-24 05:07 | 46.93529 | -113.71504 | 35217 ft | 451 kts | 337° |
| 2026-04-24 05:07 | 46.96478 | -113.73087 | 34567 ft | 451 kts | 337° |
| 2026-04-24 05:07 | 46.99427 | -113.74672 | 33888 ft | 452 kts | 337° |
| 2026-04-24 05:08 | 47.02377 | -113.76261 | 33128 ft | 452 kts | 337° |
| 2026-04-24 05:08 | 47.05327 | -113.77850 | 32339 ft | 452 kts | 337° |
| 2026-04-24 05:08 | 47.08281 | -113.79443 | 31561 ft | 452 kts | 337° |
| 2026-04-24 05:08 | 47.11225 | -113.81032 | 30871 ft | 450 kts | 337° |
| 2026-04-24 05:09 | 47.14153 | -113.82613 | 30281 ft | 446 kts | 337° |
| 2026-04-24 05:09 | 47.17047 | -113.84179 | 29657 ft | 440 kts | 337° |
| 2026-04-24 05:09 | 47.19898 | -113.85724 | 29095 ft | 433 kts | 337° |
| 2026-04-24 05:09 | 47.22701 | -113.87245 | 28558 ft | 426 kts | 337° |
| 2026-04-24 05:10 | 47.25435 | -113.88727 | 28028 ft | 408 kts | 337° |
| 2026-04-24 05:10 | 47.28001 | -113.90117 | 27539 ft | 378 kts | 337° |
| 2026-04-24 05:10 | 47.30407 | -113.91422 | 27073 ft | 358 kts | 336° |
| 2026-04-24 05:10 | 47.32682 | -113.92658 | 26606 ft | 341 kts | 336° |
| 2026-04-24 05:11 | 47.34891 | -113.93868 | 26174 ft | 338 kts | 336° |
| 2026-04-24 05:11 | 47.37098 | -113.95080 | 25736 ft | 338 kts | 336° |
| 2026-04-24 05:11 | 47.39298 | -113.96286 | 25364 ft | 337 kts | 336° |
| 2026-04-24 05:11 | 47.41489 | -113.97486 | 25006 ft | 335 kts | 336° |
| 2026-04-24 05:12 | 47.43670 | -113.98679 | 24599 ft | 334 kts | 336° |
| 2026-04-24 05:12 | 47.45848 | -113.99873 | 24265 ft | 333 kts | 336° |
| 2026-04-24 05:12 | 47.48017 | -114.01061 | 23932 ft | 331 kts | 336° |
| 2026-04-24 05:12 | 47.50171 | -114.02242 | 23575 ft | 329 kts | 336° |
| 2026-04-24 05:13 | 47.54447 | -114.04592 | 22741 ft | 326 kts | 336° |
| 2026-04-24 05:13 | 47.56570 | -114.05760 | 22365 ft | 324 kts | 336° |
| 2026-04-24 05:13 | 47.58672 | -114.06917 | 22089 ft | 322 kts | 336° |
| 2026-04-24 05:14 | 47.60773 | -114.08075 | 21911 ft | 322 kts | 336° |
| 2026-04-24 05:14 | 47.62865 | -114.09229 | 21776 ft | 321 kts | 337° |
| 2026-04-24 05:14 | 47.64961 | -114.10387 | 21660 ft | 322 kts | 337° |
| 2026-04-24 05:14 | 47.67057 | -114.11545 | 21505 ft | 321 kts | 337° |
| 2026-04-24 05:15 | 47.69149 | -114.12702 | 21360 ft | 321 kts | 337° |
| 2026-04-24 05:15 | 47.71238 | -114.13859 | 21202 ft | 320 kts | 337° |
| 2026-04-24 05:15 | 47.73310 | -114.15032 | 20854 ft | 318 kts | 336° |
| 2026-04-24 05:15 | 47.75363 | -114.16255 | 20438 ft | 318 kts | 336° |
| 2026-04-24 05:16 | 47.77410 | -114.17482 | 20046 ft | 317 kts | 336° |
| 2026-04-24 05:16 | 47.79459 | -114.18706 | 19678 ft | 317 kts | 336° |
| 2026-04-24 05:16 | 47.81490 | -114.19916 | 19471 ft | 312 kts | 336° |
| 2026-04-24 05:16 | 47.83476 | -114.21098 | 19355 ft | 303 kts | 336° |
| 2026-04-24 05:17 | 47.85402 | -114.22243 | 19233 ft | 292 kts | 336° |
| 2026-04-24 05:17 | 47.87238 | -114.23335 | 18907 ft | 278 kts | 336° |
| 2026-04-24 05:17 | 47.89020 | -114.24397 | 18292 ft | 274 kts | 336° |
| 2026-04-24 05:17 | 47.90758 | -114.25435 | 17621 ft | 271 kts | 337° |
| 2026-04-24 05:18 | 47.92505 | -114.26478 | 17118 ft | 265 kts | 337° |
| 2026-04-24 05:18 | 47.93640 | -114.27157 | 16849 ft | 267 kts | 337° |
| 2026-04-24 05:18 | 47.95918 | -114.28519 | 16540 ft | 265 kts | 337° |
| 2026-04-24 05:18 | 47.97628 | -114.29541 | 16314 ft | 264 kts | 338° |
| 2026-04-24 05:19 | 47.99325 | -114.30557 | 16078 ft | 261 kts | 338° |
| 2026-04-24 05:19 | 48.01005 | -114.31563 | 15608 ft | 260 kts | 338° |
| 2026-04-24 05:19 | 48.02690 | -114.32572 | 15327 ft | 261 kts | 338° |
| 2026-04-24 05:19 | 48.04361 | -114.33575 | 15168 ft | 257 kts | 339° |
| 2026-04-24 05:20 | 48.06018 | -114.34568 | 14994 ft | 256 kts | 339° |
| 2026-04-24 05:20 | 48.07133 | -114.35238 | 14864 ft | 255 kts | 339° |
| 2026-04-24 05:20 | 48.08780 | -114.36227 | 14670 ft | 254 kts | 339° |
| 2026-04-24 05:20 | 48.10406 | -114.37205 | 14301 ft | 250 kts | 339° |
| 2026-04-24 05:21 | 48.12015 | -114.38173 | 13801 ft | 249 kts | 339° |
| 2026-04-24 05:21 | 48.13629 | -114.39144 | 13395 ft | 250 kts | 339° |
| 2026-04-24 05:21 | 48.15248 | -114.40118 | 13210 ft | 250 kts | 340° |
| 2026-04-24 05:21 | 48.16858 | -114.41088 | 13049 ft | 249 kts | 340° |
| 2026-04-24 05:22 | 48.18462 | -114.42055 | 12859 ft | 248 kts | 340° |
| 2026-04-24 05:22 | 48.20060 | -114.43020 | 12676 ft | 247 kts | 340° |
| 2026-04-24 05:22 | 48.21633 | -114.43969 | 12483 ft | 247 kts | 340° |
| 2026-04-24 05:22 | 48.23220 | -114.44929 | 12281 ft | 244 kts | 340° |
| 2026-04-24 05:23 | 48.24778 | -114.45872 | 11889 ft | 240 kts | 340° |
| 2026-04-24 05:23 | 48.26334 | -114.46813 | 11410 ft | 243 kts | 340° |
| 2026-04-24 05:23 | 48.27906 | -114.47763 | 11188 ft | 243 kts | 340° |
| 2026-04-24 05:23 | 48.29462 | -114.48707 | 11065 ft | 240 kts | 340° |
| 2026-04-24 05:24 | 48.31020 | -114.49651 | 10881 ft | 243 kts | 340° |
| 2026-04-24 05:24 | 48.32604 | -114.50611 | 10630 ft | 247 kts | 341° |
| 2026-04-24 05:24 | 48.34224 | -114.51502 | 10387 ft | 249 kts | 348° |
| 2026-04-24 05:24 | 48.35928 | -114.51685 | 10159 ft | 246 kts | 10° |
| 2026-04-24 05:25 | 48.37506 | -114.50794 | 10086 ft | 244 kts | 33° |
| 2026-04-24 05:25 | 48.38745 | -114.49067 | 10078 ft | 242 kts | 49° |
| 2026-04-24 05:25 | 48.39796 | -114.47116 | 9685 ft | 239 kts | 51° |
| 2026-04-24 05:25 | 48.40820 | -114.45130 | 9018 ft | 243 kts | 51° |
| 2026-04-24 05:26 | 48.41720 | -114.42947 | 8510 ft | 248 kts | 63° |
| 2026-04-24 05:26 | 48.42401 | -114.40558 | 8241 ft | 248 kts | 66° |
| 2026-04-24 05:26 | 48.43040 | -114.38150 | 7981 ft | 248 kts | 66° |
| 2026-04-24 05:26 | 48.43674 | -114.35744 | 7641 ft | 247 kts | 67° |
| 2026-04-24 05:27 | 48.44177 | -114.33272 | 7369 ft | 247 kts | 76° |
| 2026-04-24 05:27 | 48.44374 | -114.30773 | 7221 ft | 241 kts | 87° |
| 2026-04-24 05:27 | 48.44251 | -114.28265 | 7107 ft | 234 kts | 98° |
| 2026-04-24 05:27 | 48.43833 | -114.25929 | 6993 ft | 228 kts | 108° |
| 2026-04-24 05:28 | 48.43166 | -114.23795 | 6928 ft | 222 kts | 117° |
| 2026-04-24 05:28 | 48.42400 | -114.21848 | 6840 ft | 216 kts | 121° |
| 2026-04-24 05:28 | 48.41442 | -114.20174 | 6793 ft | 206 kts | 138° |
| 2026-04-24 05:28 | 48.40252 | -114.19112 | 6702 ft | 194 kts | 158° |
| 2026-04-24 05:29 | 48.38969 | -114.18721 | 6593 ft | 184 kts | 177° |
| 2026-04-24 05:29 | 48.37739 | -114.18942 | 6477 ft | 174 kts | 195° |
| 2026-04-24 05:29 | 48.36595 | -114.19710 | 5787 ft | 188 kts | 213° |
| 2026-04-24 05:29 | 48.35500 | -114.20884 | 4963 ft | 192 kts | 217° |
| 2026-04-24 05:30 | 48.34404 | -114.22130 | 3724 ft | 210 kts | 215° |
| 2026-04-24 05:30 | 48.33236 | -114.23312 | 3330 ft | 189 kts | 215° |
| 2026-04-24 05:30 | 48.32213 | -114.24324 | 3081 ft | 164 kts | 216° |
| 2026-04-24 05:30 | 48.31359 | -114.25213 | 2981 ft | 112 kts | 214° |
| 2026-04-24 05:31 | 48.30964 | -114.25628 | 2978 ft | 57 kts | 213° |
| 2026-04-24 05:31 | 48.30725 | -114.25880 | 2982 ft | 15 kts | 216° |
| 2026-04-24 05:31 | 48.30661 | -114.25893 | 2984 ft | 7 kts | 158° |
| 2026-04-24 05:31 | 48.30622 | -114.25842 | 2983 ft | 8 kts | 113° |
| 2026-04-24 05:32 | 48.30641 | -114.25792 | 2982 ft | 7 kts | 55° |
| 2026-04-24 05:32 | 48.30688 | -114.25717 | 2982 ft | 12 kts | 39° |
| 2026-04-24 05:32 | 48.30759 | -114.25639 | 2982 ft | 13 kts | 36° |
| 2026-04-24 05:32 | 48.30814 | -114.25573 | 2982 ft | 5 kts | 54° |
| 2026-04-24 05:33 | 48.30813 | -114.25530 | 2982 ft | 5 kts | 99° |
| 2026-04-24 05:33 | 48.30801 | -114.25487 | 2982 ft | 5 kts | 108° |
| 2026-04-24 05:33 | 48.30810 | -114.25444 | 2982 ft | 4 kts | 57° |
| 2026-04-24 05:34 | 48.30853 | -114.25379 | 2982 ft | 3 kts | 72° |
| 2026-04-24 05:34 | 48.30848 | -114.25351 | 2982 ft | 3 kts | 113° |
| 2026-04-24 05:34 | 48.30839 | -114.25329 | 2982 ft | 2 kts | 123° |
| 2026-04-24 05:34 | 48.30836 | -114.25323 | 2982 ft | 0 kts | 123° |